createdAt,value
2018-11-29T00:02:02.793Z,100946.56
2018-11-29T00:04:31.747Z,100948.33
2018-11-29T00:06:59.762Z,100951.55
2018-11-29T00:09:28.179Z,100959.02
2018-11-29T00:11:56.257Z,100963.85
2018-11-29T00:14:24.375Z,100966.78
2018-11-29T00:16:52.385Z,100956.78
2018-11-29T00:19:20.387Z,100948.44
2018-11-29T00:21:48.395Z,100936.47
2018-11-29T00:24:16.395Z,100937.77
2018-11-29T00:26:44.395Z,100927.77
2018-11-29T00:29:12.396Z,100928.11
2018-11-29T00:31:40.501Z,100917.69
2018-11-29T00:34:08.509Z,100921.59
2018-11-29T00:36:36.579Z,100920.31
2018-11-29T00:39:05.866Z,100928.01
2018-11-29T00:41:33.891Z,100934.45
2018-11-29T00:44:01.931Z,100933.54
2018-11-29T00:46:29.984Z,100937.80
2018-11-29T00:48:58.013Z,100936.20
2018-11-29T00:51:26.075Z,100929.22
2018-11-29T00:53:54.067Z,100930.42
2018-11-29T00:56:22.078Z,100924.91
2018-11-29T00:58:50.118Z,100923.18
2018-11-29T01:01:18.158Z,100916.40
2018-11-29T01:03:46.187Z,100909.94
2018-11-29T01:06:14.204Z,100918.70
2018-11-29T01:08:42.310Z,100912.00
2018-11-29T01:11:10.411Z,100915.41
2018-11-29T01:13:38.410Z,100927.81
2018-11-29T01:16:06.454Z,100928.20
2018-11-29T01:18:34.522Z,100936.67
2018-11-29T01:21:02.547Z,100946.55
2018-11-29T01:23:30.549Z,100947.77
2018-11-29T01:25:58.579Z,100951.09
2018-11-29T01:28:26.619Z,100942.50
2018-11-29T01:30:54.667Z,100937.51
2018-11-29T01:33:22.691Z,100930.56
2018-11-29T01:35:50.707Z,100934.96
2018-11-29T01:38:18.720Z,100929.74
2018-11-29T01:40:46.779Z,100924.89
2018-11-29T01:43:14.767Z,100920.98
2018-11-29T01:45:42.786Z,100922.66
2018-11-29T01:48:10.847Z,100923.67
2018-11-29T01:50:38.859Z,100924.47
2018-11-29T01:53:06.883Z,100919.09
2018-11-29T01:55:34.935Z,100916.18
2018-11-29T01:58:03.100Z,100916.45
2018-11-29T02:00:31.126Z,100917.06
2018-11-29T02:02:59.186Z,100917.97
2018-11-29T02:05:27.199Z,100906.95
2018-11-29T02:07:55.214Z,100910.62
2018-11-29T02:10:25.791Z,100908.98
2018-11-29T02:12:54.154Z,100904.27
2018-11-29T02:15:22.263Z,100910.94
2018-11-29T02:17:50.317Z,100908.81
2018-11-29T02:20:18.975Z,100910.94
2018-11-29T02:22:47.409Z,100906.55
2018-11-29T02:25:15.477Z,100912.72
2018-11-29T02:27:43.473Z,100911.67
2018-11-29T02:30:14.973Z,100913.26
2018-11-29T02:32:42.965Z,100906.22
2018-11-29T02:35:10.963Z,100903.89
2018-11-29T02:37:38.983Z,100899.81
2018-11-29T02:40:10.806Z,100895.93
2018-11-29T02:42:38.996Z,100888.83
2018-11-29T02:45:12.288Z,100886.38
2018-11-29T02:47:40.393Z,100891.44
2018-11-29T02:50:09.235Z,100891.38
2018-11-29T02:52:37.285Z,100885.70
2018-11-29T02:55:07.643Z,100887.63
2018-11-29T02:57:35.752Z,100887.34
2018-11-29T03:00:07.001Z,100881.37
2018-11-29T03:02:35.016Z,100879.16
2018-11-29T03:05:03.027Z,100882.86
2018-11-29T03:07:31.034Z,100879.09
2018-11-29T03:09:59.084Z,100867.20
2018-11-29T03:12:27.140Z,100865.83
2018-11-29T03:14:55.159Z,100857.16
2018-11-29T03:17:23.188Z,100852.75
2018-11-29T03:19:51.227Z,100847.34
2018-11-29T03:22:19.220Z,100850.94
2018-11-29T03:24:47.246Z,100842.81
2018-11-29T03:27:15.305Z,100845.42
2018-11-29T03:29:43.332Z,100841.41
2018-11-29T03:32:11.361Z,100840.34
2018-11-29T03:34:39.704Z,100844.00
2018-11-29T03:37:07.839Z,100847.69
2018-11-29T03:39:35.931Z,100840.73
2018-11-29T03:42:03.923Z,100840.24
2018-11-29T03:44:31.939Z,100843.31
2018-11-29T03:46:59.951Z,100842.27
2018-11-29T03:49:28.151Z,100844.78
2018-11-29T03:51:56.186Z,100845.44
2018-11-29T03:54:24.201Z,100844.88
2018-11-29T03:56:52.227Z,100843.31
2018-11-29T03:59:20.283Z,100840.50
2018-11-29T04:01:54.802Z,100844.13
2018-11-29T04:04:22.817Z,100831.00
2018-11-29T04:06:50.844Z,100838.91
2018-11-29T04:09:18.865Z,100834.42
2018-11-29T04:11:46.895Z,100838.58
2018-11-29T04:14:14.895Z,100836.22
2018-11-29T04:16:42.922Z,100832.38
2018-11-29T04:19:10.934Z,100824.23
2018-11-29T04:21:38.953Z,100832.29
2018-11-29T04:24:06.980Z,100840.84
2018-11-29T04:26:35.022Z,100828.73
2018-11-29T04:29:03.071Z,100842.41
2018-11-29T04:31:31.097Z,100835.27
2018-11-29T04:33:59.137Z,100844.42
2018-11-29T04:36:27.182Z,100847.22
2018-11-29T04:38:55.245Z,100836.58
2018-11-29T04:41:23.335Z,100842.27
2018-11-29T04:43:51.332Z,100844.46
2018-11-29T04:46:52.313Z,100836.34
2018-11-29T04:49:20.348Z,100834.42
2018-11-29T04:51:48.400Z,100835.03
2018-11-29T04:54:16.441Z,100840.89
2018-11-29T04:56:44.471Z,100831.74
2018-11-29T04:59:12.487Z,100828.03
2018-11-29T05:01:40.549Z,100823.80
2018-11-29T05:04:08.581Z,100835.66
2018-11-29T05:06:36.654Z,100830.72
2018-11-29T05:09:07.853Z,100829.84
2018-11-29T05:11:35.926Z,100825.20
2018-11-29T05:14:04.054Z,100821.06
2018-11-29T05:16:32.052Z,100819.27
2018-11-29T05:19:00.130Z,100818.41
2018-11-29T05:21:28.174Z,100820.03
2018-11-29T05:23:56.173Z,100816.45
2018-11-29T05:26:24.262Z,100818.66
2018-11-29T05:28:52.246Z,100807.45
2018-11-29T05:31:20.287Z,100819.46
2018-11-29T05:33:48.344Z,100823.19
2018-11-29T05:36:16.371Z,100817.49
2018-11-29T05:38:44.411Z,100823.53
2018-11-29T05:41:13.551Z,100818.96
2018-11-29T05:43:41.566Z,100819.08
2018-11-29T05:46:09.578Z,100820.22
2018-11-29T05:48:37.582Z,100815.83
2018-11-29T05:51:05.664Z,100823.95
2018-11-29T05:53:33.684Z,100816.23
2018-11-29T05:56:01.690Z,100813.55
2018-11-29T05:58:29.754Z,100817.88
2018-11-29T06:01:00.379Z,100812.29
2018-11-29T06:03:28.451Z,100804.48
2018-11-29T06:05:56.480Z,100805.13
2018-11-29T06:08:24.495Z,100804.29
2018-11-29T06:10:52.535Z,100803.13
2018-11-29T06:13:20.543Z,100814.39
2018-11-29T06:15:48.639Z,100818.25
2018-11-29T06:18:16.822Z,100811.62
2018-11-29T06:20:44.923Z,100812.81
2018-11-29T06:23:12.922Z,100808.61
2018-11-29T06:25:40.996Z,100801.16
2018-11-29T06:28:09.005Z,100801.97
2018-11-29T06:30:37.135Z,100801.16
2018-11-29T06:33:05.226Z,100797.88
2018-11-29T06:35:33.255Z,100801.45
2018-11-29T06:38:01.451Z,100789.52
2018-11-29T06:40:29.535Z,100795.09
2018-11-29T06:42:57.767Z,100792.41
2018-11-29T06:45:25.775Z,100790.64
2018-11-29T06:47:53.816Z,100780.05
2018-11-29T06:50:21.822Z,100781.75
2018-11-29T06:52:51.185Z,100784.08
2018-11-29T06:55:23.183Z,100777.20
2018-11-29T06:57:51.774Z,100772.31
2018-11-29T07:00:23.755Z,100774.08
2018-11-29T07:02:51.750Z,100772.59
2018-11-29T07:05:19.776Z,100768.09
2018-11-29T07:07:48.047Z,100773.05
2018-11-29T07:10:16.160Z,100772.91
2018-11-29T07:12:44.437Z,100780.11
2018-11-29T07:15:13.180Z,100770.84
2018-11-29T07:17:42.451Z,100769.48
2018-11-29T07:20:16.366Z,100765.67
2018-11-29T07:22:44.841Z,100767.55
2018-11-29T07:25:12.835Z,100768.75
2018-11-29T07:27:40.906Z,100778.03
2018-11-29T07:30:14.651Z,100771.64
2018-11-29T07:32:42.659Z,100766.17
2018-11-29T07:35:11.711Z,100768.40
2018-11-29T07:37:39.986Z,100772.31
2018-11-29T07:40:13.126Z,100771.86
2018-11-29T07:42:41.134Z,100768.40
2018-11-29T07:45:11.109Z,100764.02
2018-11-29T07:47:39.099Z,100756.63
2018-11-29T07:50:09.770Z,100764.31
2018-11-29T07:52:37.779Z,100761.97
2018-11-29T07:55:09.202Z,100753.67
2018-11-29T07:57:37.211Z,100759.23
2018-11-29T08:00:07.086Z,100759.00
2018-11-29T08:02:35.140Z,100748.55
2018-11-29T08:05:03.143Z,100754.97
2018-11-29T08:07:31.226Z,100757.92
2018-11-29T08:09:59.307Z,100757.57
2018-11-29T08:12:27.317Z,100758.27
2018-11-29T08:14:55.342Z,100762.84
2018-11-29T08:17:23.547Z,100753.76
2018-11-29T08:19:51.589Z,100762.76
2018-11-29T08:22:19.776Z,100755.30
2018-11-29T08:24:47.806Z,100753.95
2018-11-29T08:27:15.805Z,100756.45
2018-11-29T08:29:43.850Z,100750.04
2018-11-29T08:32:11.999Z,100751.08
2018-11-29T08:34:40.007Z,100755.08
2018-11-29T08:37:08.063Z,100749.42
2018-11-29T08:39:36.120Z,100742.11
2018-11-29T08:42:04.136Z,100742.46
2018-11-29T08:44:32.182Z,100745.77
2018-11-29T08:47:00.257Z,100750.73
2018-11-29T08:49:28.282Z,100751.95
2018-11-29T08:51:57.025Z,100743.50
2018-11-29T08:54:25.076Z,100752.50
2018-11-29T08:56:53.070Z,100753.54
2018-11-29T08:59:21.114Z,100754.08
2018-11-29T09:01:49.150Z,100754.99
2018-11-29T09:04:17.444Z,100758.37
2018-11-29T09:06:45.472Z,100756.21
2018-11-29T09:09:13.496Z,100759.56
2018-11-29T09:11:41.594Z,100752.05
2018-11-29T09:14:09.603Z,100752.44
2018-11-29T09:16:37.628Z,100747.89
2018-11-29T09:19:05.682Z,100750.41
2018-11-29T09:21:33.890Z,100746.13
2018-11-29T09:24:01.916Z,100749.20
2018-11-29T09:26:30.016Z,100745.95
2018-11-29T09:28:58.078Z,100747.34
2018-11-29T09:31:26.107Z,100745.44
2018-11-29T09:33:54.095Z,100749.25
2018-11-29T09:36:22.150Z,100750.30
2018-11-29T09:38:50.180Z,100750.30
2018-11-29T09:41:18.287Z,100753.59
2018-11-29T09:43:46.291Z,100761.75
2018-11-29T09:46:14.384Z,100752.97
2018-11-29T09:48:42.555Z,100746.20
2018-11-29T09:51:10.581Z,100737.47
2018-11-29T09:53:38.590Z,100725.42
2018-11-29T09:56:06.618Z,100725.94
2018-11-29T09:58:34.743Z,100719.69
2018-11-29T10:01:02.827Z,100720.31
2018-11-29T10:03:30.847Z,100715.84
2018-11-29T10:05:58.867Z,100711.24
2018-11-29T10:08:26.870Z,100703.22
2018-11-29T10:10:54.864Z,100700.22
2018-11-29T10:13:24.681Z,100696.05
2018-11-29T10:15:52.723Z,100699.51
2018-11-29T10:18:20.764Z,100694.56
2018-11-29T10:20:48.818Z,100684.59
2018-11-29T10:23:16.872Z,100687.20
2018-11-29T10:25:44.866Z,100684.84
2018-11-29T10:28:14.078Z,100682.06
2018-11-29T10:30:53.736Z,100686.82
2018-11-29T10:33:21.823Z,100690.38
2018-11-29T10:35:49.825Z,100677.08
2018-11-29T10:38:17.962Z,100675.80
2018-11-29T10:40:45.995Z,100678.04
2018-11-29T10:43:14.010Z,100683.33
2018-11-29T10:45:42.034Z,100683.91
2018-11-29T10:48:13.815Z,100669.20
2018-11-29T10:50:41.811Z,100668.17
2018-11-29T10:53:10.831Z,100673.75
2018-11-29T10:55:38.862Z,100665.53
2018-11-29T10:58:06.893Z,100666.28
2018-11-29T11:00:39.148Z,100667.17
2018-11-29T11:03:13.116Z,100660.01
2018-11-29T11:05:41.209Z,100660.67
2018-11-29T11:08:09.591Z,100661.33
2018-11-29T11:10:38.510Z,100664.34
2018-11-29T11:13:06.870Z,100659.42
2018-11-29T11:15:35.096Z,100653.34
2018-11-29T11:18:03.256Z,100653.70
2018-11-29T11:20:31.551Z,100664.89
2018-11-29T11:22:59.618Z,100674.06
2018-11-29T11:25:27.669Z,100674.01
2018-11-29T11:27:55.683Z,100677.16
2018-11-29T11:30:23.703Z,100677.50
2018-11-29T11:32:52.551Z,100676.66
2018-11-29T11:35:20.614Z,100680.87
2018-11-29T11:37:48.654Z,100672.92
2018-11-29T11:40:17.245Z,100674.85
2018-11-29T11:42:46.043Z,100661.88
2018-11-29T11:45:17.046Z,100659.05
2018-11-29T11:47:45.183Z,100649.69
2018-11-29T11:50:17.175Z,100654.84
2018-11-29T11:52:45.264Z,100640.52
2018-11-29T11:55:18.974Z,100645.52
2018-11-29T11:57:42.135Z,100637.25
2018-11-29T12:00:29.449Z,100637.25
2018-11-29T12:03:00.705Z,100631.81
2018-11-29T12:05:28.885Z,100626.38
2018-11-29T12:07:56.904Z,100612.23
2018-11-29T12:10:24.906Z,100611.44
2018-11-29T12:12:52.929Z,100611.25
2018-11-29T12:15:20.971Z,100604.09
2018-11-29T12:17:49.041Z,100603.91
2018-11-29T12:20:17.780Z,100598.25
2018-11-29T12:22:45.783Z,100602.31
2018-11-29T12:25:14.772Z,100591.69
2018-11-29T12:27:42.794Z,100595.52
2018-11-29T12:30:21.027Z,100586.13
2018-11-29T12:32:49.059Z,100589.22
2018-11-29T12:35:17.088Z,100580.18
2018-11-29T12:37:45.122Z,100584.38
2018-11-29T12:40:14.314Z,100572.77
2018-11-29T12:42:42.330Z,100563.98
2018-11-29T12:45:11.305Z,100564.11
2018-11-29T12:47:39.303Z,100554.98
2018-11-29T12:50:15.115Z,100559.33
2018-11-29T12:52:43.148Z,100557.19
2018-11-29T12:55:11.983Z,100553.25
2018-11-29T12:57:40.007Z,100540.46
2018-11-29T13:00:12.913Z,100535.39
2018-11-29T13:02:44.892Z,100533.55
2018-11-29T13:05:12.899Z,100531.31
2018-11-29T13:07:43.350Z,100526.53
2018-11-29T13:10:09.268Z,100526.53
2018-11-29T13:12:37.428Z,100521.26
2018-11-29T13:15:09.316Z,100518.34
2018-11-29T13:17:37.399Z,100522.92
2018-11-29T13:20:08.602Z,100523.78
2018-11-29T13:22:36.665Z,100527.27
2018-11-29T13:25:06.066Z,100520.16
2018-11-29T13:27:34.075Z,100517.49
2018-11-29T13:30:02.170Z,100513.77
2018-11-29T13:32:30.287Z,100499.39
2018-11-29T13:34:58.329Z,100495.02
2018-11-29T13:37:26.339Z,100482.28
2018-11-29T13:39:54.339Z,100486.31
2018-11-29T13:42:22.476Z,100485.31
2018-11-29T13:44:50.533Z,100482.27
2018-11-29T13:47:18.648Z,100477.08
2018-11-29T13:49:46.743Z,100468.38
2018-11-29T13:52:14.860Z,100468.11
2018-11-29T13:54:42.987Z,100479.03
2018-11-29T13:57:10.995Z,100506.00
2018-11-29T13:59:39.015Z,100509.68
2018-11-29T14:02:07.014Z,100498.44
2018-11-29T14:04:35.033Z,100497.19
2018-11-29T14:07:03.013Z,100502.75
2018-11-29T14:09:31.053Z,100491.94
2018-11-29T14:11:59.112Z,100490.84
2018-11-29T14:14:27.298Z,100485.28
2018-11-29T14:16:55.326Z,100484.16
2018-11-29T14:19:23.547Z,100470.16
2018-11-29T14:21:51.724Z,100469.16
2018-11-29T14:24:19.704Z,100470.94
2018-11-29T14:26:47.741Z,100469.47
2018-11-29T14:29:16.703Z,100461.98
2018-11-29T14:31:44.693Z,100459.03
2018-11-29T14:34:12.739Z,100466.69
2018-11-29T14:36:40.811Z,100458.56
2018-11-29T14:39:08.814Z,100462.81
2018-11-29T14:41:36.872Z,100461.34
2018-11-29T14:44:04.999Z,100453.10
2018-11-29T14:46:33.022Z,100455.61
2018-11-29T14:49:01.022Z,100456.73
2018-11-29T14:51:29.040Z,100448.42
2018-11-29T14:53:57.051Z,100448.70
2018-11-29T14:56:25.110Z,100442.61
2018-11-29T14:58:54.135Z,100448.42
2018-11-29T15:01:22.390Z,100441.61
2018-11-29T15:03:50.540Z,100438.45
2018-11-29T15:06:18.573Z,100439.92
2018-11-29T15:08:46.567Z,100443.17
2018-11-29T15:11:14.577Z,100436.92
2018-11-29T15:13:42.623Z,100428.80
2018-11-29T15:16:10.641Z,100421.23
2018-11-29T15:18:38.668Z,100406.43
2018-11-29T15:21:06.687Z,100408.97
2018-11-29T15:23:34.691Z,100391.28
2018-11-29T15:26:02.697Z,100395.53
2018-11-29T15:28:30.767Z,100405.93
2018-11-29T15:30:58.779Z,100400.09
2018-11-29T15:33:26.754Z,100407.75
2018-11-29T15:35:54.755Z,100404.87
2018-11-29T15:38:22.771Z,100391.84
2018-11-29T15:40:50.787Z,100387.59
2018-11-29T15:43:18.783Z,100395.31
2018-11-29T15:45:46.807Z,100389.66
2018-11-29T15:48:14.804Z,100388.44
2018-11-29T15:50:42.825Z,100384.03
2018-11-29T15:53:10.839Z,100374.60
2018-11-29T15:55:38.866Z,100378.55
2018-11-29T15:58:06.826Z,100373.02
2018-11-29T16:00:34.831Z,100377.56
2018-11-29T16:03:05.674Z,100376.79
2018-11-29T16:05:33.679Z,100369.70
2018-11-29T16:08:01.718Z,100378.47
2018-11-29T16:10:29.703Z,100380.72
2018-11-29T16:12:57.699Z,100374.62
2018-11-29T16:15:25.742Z,100373.02
2018-11-29T16:17:53.915Z,100372.09
2018-11-29T16:20:24.930Z,100362.73
2018-11-29T16:22:53.008Z,100358.19
2018-11-29T16:25:21.152Z,100353.55
2018-11-29T16:27:49.175Z,100347.77
2018-11-29T16:30:23.847Z,100345.67
2018-11-29T16:32:51.976Z,100346.21
2018-11-29T16:35:20.049Z,100342.14
2018-11-29T16:37:48.058Z,100339.44
2018-11-29T16:40:16.099Z,100341.50
2018-11-29T16:42:44.146Z,100336.03
2018-11-29T16:45:13.216Z,100331.26
2018-11-29T16:47:41.666Z,100322.37
2018-11-29T16:50:12.970Z,100311.70
2018-11-29T16:52:40.995Z,100305.23
2018-11-29T16:55:10.043Z,100298.97
2018-11-29T16:57:38.660Z,100290.73
2018-11-29T17:00:14.430Z,100283.19
2018-11-29T17:02:42.460Z,100271.37
2018-11-29T17:05:12.512Z,100268.12
2018-11-29T17:07:40.533Z,100271.22
2018-11-29T17:10:11.506Z,100261.94
2018-11-29T17:12:39.635Z,100250.73
2018-11-29T17:15:09.798Z,100251.30
2018-11-29T17:17:37.810Z,100243.20
2018-11-29T17:20:08.852Z,100246.66
2018-11-29T17:22:36.848Z,100231.16
2018-11-29T17:25:05.858Z,100217.96
2018-11-29T17:27:33.885Z,100207.23
2018-11-29T17:30:01.884Z,100191.73
2018-11-29T17:32:30.055Z,100194.28
2018-11-29T17:34:58.194Z,100191.28
2018-11-29T17:37:26.355Z,100198.22
2018-11-29T17:39:54.380Z,100193.37
2018-11-29T17:42:22.407Z,100201.61
2018-11-29T17:44:50.467Z,100216.18
2018-11-29T17:47:18.482Z,100244.81
2018-11-29T17:49:46.549Z,100263.42
2018-11-29T17:52:14.628Z,100278.53
2018-11-29T17:54:42.662Z,100277.16
2018-11-29T17:57:10.982Z,100272.11
2018-11-29T17:59:38.976Z,100273.95
2018-11-29T18:02:06.992Z,100280.45
2018-11-29T18:04:35.121Z,100269.58
2018-11-29T18:07:03.199Z,100269.58
2018-11-29T18:09:31.210Z,100279.16
2018-11-29T18:11:59.274Z,100281.30
2018-11-29T18:14:27.399Z,100279.15
2018-11-29T18:16:55.453Z,100275.44
2018-11-29T18:19:23.579Z,100279.98
2018-11-29T18:21:51.661Z,100294.13
2018-11-29T18:24:19.600Z,100286.32
2018-11-29T18:26:47.611Z,100266.94
2018-11-29T18:29:15.658Z,100283.39
2018-11-29T18:31:43.701Z,100288.23
2018-11-29T18:34:11.739Z,100279.22
2018-11-29T18:36:39.743Z,100264.31
2018-11-29T18:39:09.040Z,100257.67
2018-11-29T18:41:37.049Z,100253.77
2018-11-29T18:44:05.472Z,100259.02
2018-11-29T18:46:33.541Z,100256.69
2018-11-29T18:49:01.567Z,100262.62
2018-11-29T18:51:29.575Z,100271.51
2018-11-29T18:53:57.608Z,100272.66
2018-11-29T18:56:25.662Z,100268.58
2018-11-29T18:58:53.650Z,100272.89
2018-11-29T19:01:21.699Z,100272.11
2018-11-29T19:03:49.695Z,100271.10
2018-11-29T19:06:17.911Z,100276.22
2018-11-29T19:08:45.924Z,100272.25
2018-11-29T19:11:13.947Z,100276.36
2018-11-29T19:13:41.973Z,100283.63
2018-11-29T19:16:09.985Z,100272.05
2018-11-29T19:18:38.005Z,100271.03
2018-11-29T19:21:06.585Z,100264.64
2018-11-29T19:23:35.263Z,100245.73
2018-11-29T19:26:02.658Z,100240.11
2018-11-29T19:28:30.719Z,100246.03
2018-11-29T19:30:58.761Z,100241.80
2018-11-29T19:33:27.559Z,100242.47
2018-11-29T19:35:55.828Z,100236.91
2018-11-29T19:38:23.857Z,100235.39
2018-11-29T19:40:51.891Z,100230.45
2018-11-29T19:43:19.922Z,100232.23
2018-11-29T19:45:47.948Z,100236.23
2018-11-29T19:48:15.963Z,100242.09
2018-11-29T19:50:43.939Z,100238.77
2018-11-29T19:53:15.402Z,100228.56
2018-11-29T19:55:43.551Z,100226.66
2018-11-29T19:58:11.588Z,100242.61
2018-11-29T20:00:39.706Z,100241.66
2018-11-29T20:03:07.833Z,100243.75
2018-11-29T20:05:35.831Z,100233.25
2018-11-29T20:08:03.975Z,100238.20
2018-11-29T20:10:31.958Z,100248.93
2018-11-29T20:13:06.589Z,100245.53
2018-11-29T20:15:36.603Z,100248.05
2018-11-29T20:18:04.623Z,100241.80
2018-11-29T20:20:32.696Z,100251.58
2018-11-29T20:23:00.700Z,100255.98
2018-11-29T20:25:28.703Z,100256.42
2018-11-29T20:27:56.718Z,100257.26
2018-11-29T20:30:24.940Z,100253.75
2018-11-29T20:32:54.166Z,100255.48
2018-11-29T20:35:22.203Z,100259.30
2018-11-29T20:37:51.176Z,100261.43
2018-11-29T20:40:20.595Z,100249.02
2018-11-29T20:42:49.484Z,100247.11
2018-11-29T20:45:20.926Z,100253.67
2018-11-29T20:47:48.939Z,100246.27
2018-11-29T20:50:18.333Z,100251.41
2018-11-29T20:52:47.102Z,100242.39
2018-11-29T20:55:20.958Z,100251.34
2018-11-29T20:57:48.962Z,100252.78
2018-11-29T21:00:16.974Z,100257.02
2018-11-29T21:02:44.993Z,100252.95
2018-11-29T21:05:14.241Z,100260.14
2018-11-29T21:07:44.441Z,100258.75
2018-11-29T21:10:15.852Z,100248.84
2018-11-29T21:12:43.866Z,100249.06
2018-11-29T21:15:11.878Z,100242.80
2018-11-29T21:17:39.916Z,100250.58
2018-11-29T21:20:09.832Z,100251.10
2018-11-29T21:22:37.858Z,100250.87
2018-11-29T21:25:08.826Z,100250.03
2018-11-29T21:27:36.822Z,100241.43
2018-11-29T21:30:07.513Z,100234.29
2018-11-29T21:32:35.539Z,100229.08
2018-11-29T21:35:03.618Z,100226.52
2018-11-29T21:37:31.656Z,100230.87
2018-11-29T21:39:59.726Z,100224.42
2018-11-29T21:42:27.839Z,100225.91
2018-11-29T21:44:55.836Z,100220.61
2018-11-29T21:47:23.827Z,100217.73
2018-11-29T21:49:51.975Z,100218.31
2018-11-29T21:52:20.020Z,100222.72
2018-11-29T21:54:48.250Z,100226.66
2018-11-29T21:57:16.238Z,100231.91
2018-11-29T21:59:44.350Z,100238.53
2018-11-29T22:02:12.409Z,100229.71
2018-11-29T22:04:40.434Z,100226.14
2018-11-29T22:07:08.487Z,100222.98
2018-11-29T22:09:36.539Z,100221.00
2018-11-29T22:12:04.556Z,100217.77
2018-11-29T22:14:32.560Z,100218.31
2018-11-29T22:17:00.754Z,100216.36
2018-11-29T22:19:28.774Z,100217.97
2018-11-29T22:21:56.875Z,100218.10
2018-11-29T22:24:25.066Z,100231.29
2018-11-29T22:26:53.268Z,100222.70
2018-11-29T22:29:21.287Z,100223.41
2018-11-29T22:31:49.402Z,100227.35
2018-11-29T22:34:18.394Z,100230.77
2018-11-29T22:36:46.502Z,100228.59
2018-11-29T22:39:15.643Z,100227.23
2018-11-29T22:41:43.723Z,100229.98
2018-11-29T22:44:11.714Z,100225.80
2018-11-29T22:46:39.820Z,100231.24
2018-11-29T22:49:07.835Z,100221.03
2018-11-29T22:51:35.951Z,100222.63
2018-11-29T22:54:04.062Z,100215.19
2018-11-29T22:56:32.076Z,100212.66
2018-11-29T22:59:00.142Z,100205.49
2018-11-29T23:01:28.464Z,100196.52
2018-11-29T23:03:57.311Z,100208.91
2018-11-29T23:06:25.353Z,100216.66
2018-11-29T23:08:53.372Z,100217.07
2018-11-29T23:11:21.394Z,100227.82
2018-11-29T23:13:49.399Z,100220.97
2018-11-29T23:16:17.497Z,100221.22
2018-11-29T23:18:45.499Z,100225.87
2018-11-29T23:21:13.567Z,100225.73
2018-11-29T23:23:41.624Z,100213.27
2018-11-29T23:26:09.638Z,100209.73
2018-11-29T23:28:37.731Z,100215.35
2018-11-29T23:31:05.827Z,100214.77
2018-11-29T23:33:33.856Z,100205.44
2018-11-29T23:36:01.857Z,100207.30
2018-11-29T23:38:29.873Z,100210.92
2018-11-29T23:40:57.896Z,100202.05
2018-11-29T23:43:25.916Z,100204.66
2018-11-29T23:45:53.943Z,100214.91
2018-11-29T23:48:21.959Z,100203.59
2018-11-29T23:50:49.965Z,100203.95
2018-11-29T23:53:17.983Z,100202.94
2018-11-29T23:55:45.979Z,100197.28
2018-11-29T23:58:13.995Z,100196.37
